Time;durP1;ratioP1;P1;durP2;ratioP2;P2;SDS_P1;SDS_P2;PMS_P1;PMS_P2;Temp;Humidity;BMP_temperature;BMP_pressure;BME280_temperature;BME280_humidity;BME280_pressure;Samples;Min_cycle;Max_cycle;Signal;HPM_P1;HPM_P2
2022/10/27 00:01:39;;;;;;;43.10;38.80;;;;;;;6.42;100.00;98710.64;103725;1308;22499;-89
2022/10/27 00:04:07;;;;;;;46.80;42.20;;;;;;;6.41;100.00;98706.61;103773;1285;22478;-89
2022/10/27 00:06:36;;;;;;;41.70;37.70;;;;;;;6.43;100.00;98704.02;103765;1301;22498;-85
2022/10/27 00:09:04;;;;;;;44.80;40.60;;;;;;;6.41;100.00;98708.11;103872;1309;23038;-85
2022/10/27 00:11:32;;;;;;;40.10;36.20;;;;;;;6.41;100.00;98707.36;103852;1285;22468;-86
2022/10/27 00:14:00;;;;;;;40.10;36.10;;;;;;;6.43;100.00;98708.77;103667;1304;22464;-86
2022/10/27 00:16:27;;;;;;;39.80;35.50;;;;;;;6.39;100.00;98708.09;103545;1297;23219;-85
2022/10/27 00:18:55;;;;;;;39.20;35.40;;;;;;;6.30;100.00;98709.13;103726;1304;25665;-86
2022/10/27 00:21:23;;;;;;;42.80;38.90;;;;;;;6.20;100.00;98708.21;103744;1282;22528;-87
2022/10/27 00:23:51;;;;;;;41.70;37.60;;;;;;;6.17;100.00;98708.11;103691;1304;24235;-87
2022/10/27 00:26:21;;;;;;;48.70;44.10;;;;;;;6.16;100.00;98711.48;103461;1290;23315;-84
2022/10/27 00:28:48;;;;;;;40.60;36.90;;;;;;;6.14;100.00;98714.55;103742;1302;23456;-85
2022/10/27 00:31:19;;;;;;;41.60;37.40;;;;;;;6.14;100.00;98710.44;105548;1302;22499;-85
2022/10/27 00:33:49;;;;;;;38.60;34.60;;;;;;;6.19;100.00;98711.09;107000;1283;22565;-84
2022/10/27 00:36:19;;;;;;;37.50;33.80;;;;;;;6.26;100.00;98713.14;107049;1284;22491;-86
2022/10/27 00:38:47;;;;;;;36.10;32.90;;;;;;;6.27;100.00;98716.95;107068;1281;22149;-85
2022/10/27 00:41:37;;;;;;;34.50;31.20;;;;;;;6.28;100.00;98718.09;107049;1282;22754;-85
2022/10/27 00:44:27;;;;;;;43.20;33.60;;;;;;;6.29;100.00;98719.71;107011;1303;22473;-85
2022/10/27 00:46:57;;;;;;;38.30;34.80;;;;;;;6.29;100.00;98719.60;107013;1287;22841;-85
2022/10/27 00:49:28;;;;;;;35.90;32.50;;;;;;;6.30;100.00;98718.11;105889;1288;22611;-87
2022/10/27 00:52:00;;;;;;;37.00;33.30;;;;;;;6.28;100.00;98719.10;103785;1280;22512;-87
2022/10/27 00:54:33;;;;;;;34.10;30.90;;;;;;;6.25;100.00;98721.45;103651;1306;22607;-90
2022/10/27 00:57:02;;;;;;;40.10;36.30;;;;;;;6.24;100.00;98720.50;103500;1297;25441;-88
2022/10/27 00:59:30;;;;;;;34.60;31.30;;;;;;;6.24;100.00;98718.90;103631;1305;22504;-87
2022/10/27 01:01:58;;;;;;;38.70;34.70;;;;;;;6.28;100.00;98719.33;103932;1306;22441;-90
2022/10/27 01:04:38;;;;;;;32.50;28.30;;;;;;;6.32;100.00;98717.98;104236;1306;25209;-87
2022/10/27 01:07:06;;;;;;;35.00;31.80;;;;;;;6.40;100.00;98721.05;104342;1306;24266;-87
2022/10/27 01:09:34;;;;;;;36.20;33.00;;;;;;;6.42;100.00;98719.97;104331;1291;26471;-86
2022/10/27 01:12:02;;;;;;;36.60;33.10;;;;;;;6.41;100.00;98720.54;104762;1295;22506;-88
2022/10/27 01:14:30;;;;;;;34.80;31.60;;;;;;;6.42;100.00;98721.61;104563;1280;22534;-89
2022/10/27 01:17:17;;;;;;;33.00;29.90;;;;;;;6.37;100.00;98720.61;103861;1297;25244;-89
2022/10/27 01:20:00;;;;;;;32.20;29.20;;;;;;;6.35;100.00;98719.42;104656;1305;24308;-87
2022/10/27 01:22:37;;;;;;;32.70;29.60;;;;;;;6.42;100.00;98718.73;104728;1306;25259;-89
2022/10/27 01:25:22;;;;;;;32.70;29.40;;;;;;;6.53;100.00;98723.60;104620;1306;22460;-87
2022/10/27 01:28:05;;;;;;;32.20;29.20;;;;;;;6.53;100.00;98728.16;104882;1306;22414;-86
2022/10/27 01:30:57;;;;;;;51.80;47.00;;;;;;;6.44;100.00;98726.19;104697;1306;22465;-88
2022/10/27 01:33:33;;;;;;;34.70;31.20;;;;;;;6.36;100.00;98723.54;104541;1304;22495;-87
2022/10/27 01:36:19;;;;;;;37.00;33.70;;;;;;;6.32;100.00;98723.27;105506;1284;22447;-87
2022/10/27 01:39:03;;;;;;;35.50;32.20;;;;;;;6.27;100.00;98723.17;105320;1298;22464;-88
2022/10/27 01:41:46;;;;;;;31.50;28.50;;;;;;;6.26;100.00;98725.82;105773;1306;22482;-87
2022/10/27 01:44:27;;;;;;;38.40;34.90;;;;;;;6.25;100.00;98730.05;106849;1304;22488;-85
2022/10/27 01:46:59;;;;;;;32.80;29.80;;;;;;;6.24;100.00;98734.86;107014;1288;22699;-84
2022/10/27 01:49:34;;;;;;;33.20;29.80;;;;;;;6.24;100.00;98736.24;106843;1284;22464;-85
2022/10/27 01:52:05;;;;;;;35.30;31.80;;;;;;;6.25;100.00;98733.15;107065;1281;22517;-86
2022/10/27 01:54:35;;;;;;;34.10;30.70;;;;;;;6.34;100.00;98740.59;106719;1280;22582;-87
2022/10/27 01:57:08;;;;;;;37.70;34.30;;;;;;;6.36;100.00;98737.08;104974;1306;23915;-89
2022/10/27 01:59:54;;;;;;;37.50;34.10;;;;;;;6.34;100.00;98733.58;104207;1304;22500;-86
2022/10/27 02:02:35;;;;;;;41.40;37.50;;;;;;;6.37;100.00;98735.27;103823;1287;22482;-86
2022/10/27 02:05:11;;;;;;;37.70;34.00;;;;;;;6.44;100.00;98733.27;103945;1306;22496;-91
2022/10/27 02:07:58;;;;;;;35.10;32.00;;;;;;;6.45;100.00;98735.27;104155;1282;22505;-86
2022/10/27 02:10:39;;;;;;;35.70;32.20;;;;;;;6.37;100.00;98734.09;103643;1306;22465;-87
2022/10/27 02:13:08;;;;;;;35.60;32.10;;;;;;;6.35;100.00;98740.02;103734;1305;22468;-88
2022/10/27 02:15:47;;;;;;;33.90;30.50;;;;;;;6.33;100.00;98738.34;103687;1306;22542;-88
2022/10/27 02:18:19;;;;;;;38.60;35.10;;;;;;;6.27;100.00;98739.76;103476;1306;24396;-88
2022/10/27 02:20:50;;;;;;;37.00;33.60;;;;;;;6.24;100.00;98743.31;103750;1304;22474;-86
2022/10/27 02:23:21;;;;;;;35.20;31.90;;;;;;;6.15;100.00;98747.27;103620;1306;23882;-88
2022/10/27 02:25:57;;;;;;;35.70;32.40;;;;;;;6.11;100.00;98752.27;103567;1306;22514;-88
2022/10/27 02:28:32;;;;;;;35.20;31.90;;;;;;;6.09;100.00;98751.54;103538;1295;25264;-88
2022/10/27 02:30:59;;;;;;;;;;;;;;;6.10;100.00;98751.87;103868;1295;23339;-88
2022/10/27 02:33:27;;;;;;;38.00;34.50;;;;;;;6.07;100.00;98754.65;103674;1306;22874;-88
2022/10/27 02:35:56;;;;;;;34.60;31.50;;;;;;;6.07;100.00;98752.80;103493;1306;24166;-88
2022/10/27 02:38:24;;;;;;;39.00;35.50;;;;;;;6.03;100.00;98754.88;103698;1306;23356;-85
2022/10/27 02:40:53;;;;;;;38.20;34.50;;;;;;;6.06;100.00;98758.17;103810;1306;24414;-89
2022/10/27 02:43:20;;;;;;;38.00;33.50;;;;;;;6.05;100.00;98758.00;103436;1306;26764;-87
2022/10/27 02:45:48;;;;;;;42.70;38.90;;;;;;;6.01;100.00;98757.21;103556;1299;22533;-87
2022/10/27 02:48:16;;;;;;;35.60;32.40;;;;;;;6.02;100.00;98754.77;103786;1306;22721;-87
2022/10/27 02:50:44;;;;;;;37.50;34.10;;;;;;;5.94;100.00;98761.65;103562;1306;25309;-87
2022/10/27 02:53:12;;;;;;;37.20;33.50;;;;;;;6.00;100.00;98765.21;103639;1306;24435;-89
2022/10/27 02:55:40;;;;;;;37.70;34.30;;;;;;;5.97;100.00;98764.38;103797;1305;23233;-88
2022/10/27 02:58:08;;;;;;;36.30;33.10;;;;;;;5.98;100.00;98765.52;103696;1282;25185;-91
2022/10/27 03:00:36;;;;;;;40.50;36.60;;;;;;;5.99;100.00;98764.13;103775;1306;22475;-87
2022/10/27 03:03:04;;;;;;;38.40;35.10;;;;;;;5.95;100.00;98764.67;103595;1306;22755;-88
2022/10/27 03:05:32;;;;;;;37.70;34.30;;;;;;;5.89;100.00;98763.28;103850;1298;22540;-86
2022/10/27 03:07:59;;;;;;;34.30;31.40;;;;;;;5.85;100.00;98761.78;103704;1304;22516;-90
2022/10/27 03:10:28;;;;;;;33.90;30.80;;;;;;;5.82;100.00;98767.04;103893;1284;25239;-90
2022/10/27 03:12:56;;;;;;;34.30;31.00;;;;;;;5.81;100.00;98765.63;103924;1306;22481;-90
2022/10/27 03:15:23;;;;;;;31.50;28.60;;;;;;;5.84;100.00;98764.82;103765;1284;22536;-90
2022/10/27 03:17:51;;;;;;;34.20;31.00;;;;;;;5.84;100.00;98767.13;103818;1306;22438;-90
2022/10/27 03:20:19;;;;;;;33.50;30.40;;;;;;;5.91;100.00;98767.30;103712;1303;22598;-89
2022/10/27 03:22:47;;;;;;;31.80;28.70;;;;;;;5.93;100.00;98765.75;103515;1309;22468;-91
2022/10/27 03:25:15;;;;;;;31.50;28.60;;;;;;;5.95;100.00;98769.48;103684;1306;22488;-88
2022/10/27 03:27:43;;;;;;;32.70;29.70;;;;;;;5.99;100.00;98773.07;103566;1306;22480;-87
2022/10/27 03:30:14;;;;;;;31.20;28.50;;;;;;;6.04;100.00;98771.90;103570;1306;22664;-92
2022/10/27 03:32:47;;;;;;;31.40;28.50;;;;;;;6.01;100.00;98769.72;103602;1283;26537;-89
2022/10/27 03:35:18;;;;;;;33.70;30.60;;;;;;;6.03;100.00;98776.65;103724;1284;25303;-89
2022/10/27 03:37:54;;;;;;;29.70;27.20;;;;;;;6.09;100.00;98780.69;103814;1306;24244;-87
2022/10/27 03:40:23;;;;;;;29.90;27.30;;;;;;;6.17;100.00;98778.75;103885;1288;26634;-87
2022/10/27 03:42:56;;;;;;;31.30;28.30;;;;;;;6.21;100.00;98782.83;103566;1284;27266;-86
2022/10/27 03:45:25;;;;;;;30.20;27.50;;;;;;;6.27;100.00;98786.92;103628;1305;22484;-85
2022/10/27 03:48:04;;;;;;;31.00;28.10;;;;;;;6.28;100.00;98784.58;103647;1298;22463;-87
2022/10/27 03:50:33;;;;;;;31.90;29.00;;;;;;;6.36;100.00;98784.84;104014;1290;22499;-86
2022/10/27 03:53:02;;;;;;;29.40;26.70;;;;;;;6.42;100.00;98785.42;103599;1306;22496;-86
2022/10/27 03:55:31;;;;;;;30.40;27.70;;;;;;;6.39;100.00;98789.86;103851;1304;22722;-86
2022/10/27 03:57:59;;;;;;;30.40;27.70;;;;;;;6.39;100.00;98790.60;103598;1294;22502;-84
2022/10/27 04:00:27;;;;;;;32.00;29.00;;;;;;;6.40;100.00;98785.30;103633;1284;24898;-85
2022/10/27 04:02:56;;;;;;;31.50;28.40;;;;;;;6.37;100.00;98786.84;103641;1305;22485;-86
2022/10/27 04:05:24;;;;;;;31.30;28.50;;;;;;;6.36;100.00;98787.14;103599;1306;25198;-85
2022/10/27 04:07:52;;;;;;;33.80;30.80;;;;;;;6.34;100.00;98787.70;103549;1290;22583;-87
2022/10/27 04:10:19;;;;;;;32.50;29.30;;;;;;;6.32;100.00;98786.72;103705;1283;22483;-86
2022/10/27 04:12:49;;;;;;;31.30;28.20;;;;;;;6.31;100.00;98794.41;103645;1306;22534;-87
2022/10/27 04:15:18;;;;;;;31.10;28.30;;;;;;;6.34;100.00;98787.00;103837;1306;24264;-86
2022/10/27 04:17:46;;;;;;;31.20;28.40;;;;;;;6.46;100.00;98794.59;103657;1306;24433;-85
2022/10/27 04:20:14;;;;;;;53.60;48.30;;;;;;;6.52;100.00;98795.78;103847;1305;23240;-87
2022/10/27 04:22:42;;;;;;;35.70;32.40;;;;;;;6.61;100.00;98796.80;103711;1306;24218;-88
2022/10/27 04:25:10;;;;;;;30.80;28.20;;;;;;;6.65;100.00;98792.50;103898;1306;22466;-88
2022/10/27 04:27:38;;;;;;;29.90;27.30;;;;;;;6.63;100.00;98797.63;103589;1306;24245;-89
2022/10/27 04:30:06;;;;;;;36.70;33.40;;;;;;;6.53;100.00;98795.31;103908;1282;25315;-88
2022/10/27 04:32:34;;;;;;;50.60;46.30;;;;;;;6.53;100.00;98800.58;103785;1305;22494;-86
2022/10/27 04:35:04;;;;;;;50.40;46.00;;;;;;;6.59;100.00;98796.41;103741;1306;25307;-87
2022/10/27 04:37:33;;;;;;;38.90;35.40;;;;;;;6.67;100.00;98792.16;103669;1306;23795;-87
2022/10/27 04:40:01;;;;;;;32.30;28.90;;;;;;;6.75;100.00;98796.42;103799;1306;22690;-87
2022/10/27 04:42:29;;;;;;;30.20;27.30;;;;;;;6.86;100.00;98792.58;103842;1305;22584;-86
2022/10/27 04:44:56;;;;;;;32.80;29.80;;;;;;;6.82;100.00;98799.08;103864;1277;22488;-86
2022/10/27 04:47:24;;;;;;;34.20;31.00;;;;;;;6.77;100.00;98799.55;103825;1305;24072;-84
2022/10/27 04:49:52;;;;;;;34.30;31.10;;;;;;;6.77;100.00;98798.70;103656;1306;25294;-85
2022/10/27 04:52:20;;;;;;;30.80;27.80;;;;;;;6.81;100.00;98809.13;103869;1304;22545;-85
2022/10/27 04:54:48;;;;;;;32.70;29.30;;;;;;;6.80;100.00;98807.90;103907;1305;22525;-85
2022/10/27 04:57:17;;;;;;;38.10;34.50;;;;;;;6.85;100.00;98807.04;104058;1305;22533;-86
2022/10/27 04:59:45;;;;;;;33.80;30.20;;;;;;;6.86;100.00;98807.58;103815;1306;25270;-85
2022/10/27 05:02:13;;;;;;;37.60;34.00;;;;;;;6.90;100.00;98813.19;103849;1281;22498;-86
2022/10/27 05:04:41;;;;;;;34.90;31.70;;;;;;;6.90;100.00;98816.52;103890;1298;24025;-84
2022/10/27 05:07:09;;;;;;;34.40;31.00;;;;;;;6.92;100.00;98809.35;103857;1304;22475;-87
2022/10/27 05:09:37;;;;;;;28.30;25.90;;;;;;;6.98;100.00;98816.55;103744;1306;24422;-87
2022/10/27 05:12:05;;;;;;;28.50;26.00;;;;;;;7.09;100.00;98814.98;103874;1288;22484;-86
2022/10/27 05:14:33;;;;;;;26.00;23.50;;;;;;;7.12;100.00;98817.68;103786;1304;24273;-87
2022/10/27 05:17:00;;;;;;;29.70;26.20;;;;;;;7.14;100.00;98821.15;103721;1306;23091;-87
2022/10/27 05:19:28;;;;;;;32.80;29.90;;;;;;;7.20;100.00;98824.85;103710;1285;22525;-87
2022/10/27 05:21:56;;;;;;;34.50;31.50;;;;;;;7.22;100.00;98829.42;103970;1273;23107;-86
2022/10/27 05:24:24;;;;;;;31.50;28.60;;;;;;;7.24;100.00;98838.56;103872;1282;22483;-86
2022/10/27 05:26:52;;;;;;;31.20;27.90;;;;;;;7.22;100.00;98837.09;103819;1283;22478;-88
2022/10/27 05:29:20;;;;;;;49.10;28.90;;;;;;;7.23;100.00;98840.37;104059;1304;23260;-87
2022/10/27 05:31:48;;;;;;;30.40;26.60;;;;;;;7.25;100.00;98841.04;103947;1297;22483;-87
2022/10/27 05:34:16;;;;;;;31.80;27.90;;;;;;;7.27;100.00;98845.08;103831;1304;22587;-85
2022/10/27 05:36:46;;;;;;;30.20;27.20;;;;;;;7.33;100.00;98849.09;103906;1283;23040;-88
2022/10/27 05:39:14;;;;;;;30.10;25.40;;;;;;;7.33;100.00;98853.12;104141;1304;23203;-89
2022/10/27 05:41:42;;;;;;;32.10;28.80;;;;;;;7.31;100.00;98858.25;104043;1304;22498;-88
2022/10/27 05:44:10;;;;;;;35.20;31.90;;;;;;;7.32;100.00;98861.42;103932;1305;22878;-87
2022/10/27 05:46:38;;;;;;;29.20;26.30;;;;;;;7.38;100.00;98861.53;103928;1304;23890;-86
2022/10/27 05:49:05;;;;;;;33.30;30.10;;;;;;;7.43;100.00;98867.10;103754;1304;24236;-86
2022/10/27 05:51:33;;;;;;;26.20;23.70;;;;;;;7.45;100.00;98864.70;103814;1302;22512;-90
2022/10/27 05:54:01;;;;;;;24.30;21.90;;;;;;;7.50;100.00;98867.45;104439;1303;22857;-87
2022/10/27 05:56:29;;;;;;;29.90;27.10;;;;;;;7.54;100.00;98869.40;103948;1305;22581;-85
2022/10/27 05:58:57;;;;;;;28.10;25.60;;;;;;;7.58;100.00;98873.73;103784;1305;22470;-85
2022/10/27 06:01:25;;;;;;;32.50;29.30;;;;;;;7.57;100.00;98872.73;104029;1291;22472;-88
2022/10/27 06:03:53;;;;;;;30.20;27.50;;;;;;;7.61;100.00;98878.69;103793;1284;22525;-85
2022/10/27 06:06:21;;;;;;;27.50;24.70;;;;;;;7.67;100.00;98880.13;103740;1305;22863;-88
2022/10/27 06:08:49;;;;;;;28.30;25.60;;;;;;;7.68;100.00;98882.81;103944;1303;22504;-86
2022/10/27 06:11:17;;;;;;;28.60;25.80;;;;;;;7.64;100.00;98887.86;103844;1306;25280;-86
2022/10/27 06:13:49;;;;;;;31.20;28.10;;;;;;;7.66;100.00;98885.75;103764;1304;22496;-84
2022/10/27 06:16:21;;;;;;;29.50;26.80;;;;;;;7.68;100.00;98889.31;103748;1304;25318;-86
2022/10/27 06:18:49;;;;;;;24.50;22.10;;;;;;;7.67;100.00;98897.51;103848;1304;25214;-83
2022/10/27 06:21:17;;;;;;;28.70;22.80;;;;;;;7.66;100.00;98897.50;103778;1281;22506;-83
2022/10/27 06:23:48;;;;;;;27.00;24.60;;;;;;;7.66;100.00;98897.56;103846;1304;22505;-85
2022/10/27 06:26:17;;;;;;;28.70;25.80;;;;;;;7.61;100.00;98899.98;103755;1304;25305;-85
2022/10/27 06:28:45;;;;;;;28.10;24.10;;;;;;;7.64;100.00;98902.52;103842;1285;23374;-85
2022/10/27 06:31:12;;;;;;;26.40;23.80;;;;;;;7.70;100.00;98903.82;103834;1304;22849;-84
2022/10/27 06:33:40;;;;;;;23.90;21.80;;;;;;;7.80;100.00;98908.05;103664;1288;22521;-83
2022/10/27 06:36:08;;;;;;;26.10;23.70;;;;;;;7.92;100.00;98911.09;103760;1304;22490;-82
2022/10/27 06:38:36;;;;;;;24.50;22.20;;;;;;;8.00;100.00;98912.96;103781;1304;22467;-84
2022/10/27 06:41:08;;;;;;;25.20;23.00;;;;;;;8.10;100.00;98917.44;103578;1304;22511;-83
2022/10/27 06:43:37;;;;;;;26.20;24.10;;;;;;;8.12;100.00;98915.38;103907;1284;26545;-86
2022/10/27 06:46:05;;;;;;;26.60;24.20;;;;;;;8.23;100.00;98917.80;103786;1304;25374;-86
2022/10/27 06:48:33;;;;;;;27.70;25.00;;;;;;;8.36;100.00;98921.55;103831;1287;23616;-88
2022/10/27 06:51:01;;;;;;;25.70;22.60;;;;;;;8.50;100.00;98928.33;103752;1304;22542;-85
2022/10/27 06:53:29;;;;;;;25.60;23.10;;;;;;;8.67;100.00;98932.45;103662;1304;26140;-84
2022/10/27 06:55:57;;;;;;;26.70;24.00;;;;;;;8.81;100.00;98936.86;103866;1304;22692;-84
2022/10/27 06:58:25;;;;;;;26.80;23.80;;;;;;;8.95;100.00;98936.51;103843;1305;25310;-88
2022/10/27 07:00:53;;;;;;;25.10;21.90;;;;;;;9.09;100.00;98938.45;103863;1298;22490;-86
2022/10/27 07:03:21;;;;;;;24.00;21.60;;;;;;;9.22;100.00;98945.16;103607;1292;25271;-86
2022/10/27 07:05:49;;;;;;;27.70;24.30;;;;;;;9.32;100.00;98949.66;104051;1281;22485;-87
2022/10/27 07:08:17;;;;;;;27.10;24.60;;;;;;;9.43;100.00;98951.89;104117;1304;24212;-88
2022/10/27 07:10:45;;;;;;;26.60;23.70;;;;;;;9.54;100.00;98952.63;104350;1285;22511;-85
2022/10/27 07:13:12;;;;;;;26.90;24.20;;;;;;;9.66;100.00;98954.26;104701;1284;22445;-87
2022/10/27 07:15:40;;;;;;;28.50;25.00;;;;;;;9.75;100.00;98958.47;104539;1300;25351;-85
2022/10/27 07:18:10;;;;;;;31.80;24.90;;;;;;;9.86;100.00;98962.79;104620;1306;24378;-88
2022/10/27 07:20:38;;;;;;;31.30;25.20;;;;;;;9.97;100.00;98961.34;105575;1291;22462;-87
2022/10/27 07:23:09;;;;;;;29.90;26.70;;;;;;;10.04;100.00;98962.59;106029;1294;22773;-84
2022/10/27 07:25:37;;;;;;;32.10;28.70;;;;;;;10.14;100.00;98967.71;106961;1285;22480;-83
2022/10/27 07:28:06;;;;;;;34.20;30.50;;;;;;;10.23;100.00;98965.12;106588;1298;22136;-84
2022/10/27 07:30:36;;;;;;;30.00;27.20;;;;;;;10.30;100.00;98970.86;105742;1274;23884;-85
2022/10/27 07:33:05;;;;;;;29.80;27.20;;;;;;;10.36;100.00;98972.58;105427;1298;22559;-86
2022/10/27 07:35:34;;;;;;;28.20;25.50;;;;;;;10.41;100.00;98972.41;104579;1305;22491;-86
2022/10/27 07:38:02;;;;;;;29.20;26.20;;;;;;;10.52;100.00;98971.65;103897;1306;22502;-85
2022/10/27 07:40:30;;;;;;;28.90;26.30;;;;;;;10.59;100.00;98977.23;103906;1306;23835;-87
2022/10/27 07:43:01;;;;;;;28.70;25.80;;;;;;;10.66;100.00;98980.08;104049;1305;25340;-84
2022/10/27 07:45:38;;;;;;;30.70;27.90;;;;;;;10.71;100.00;98986.17;104029;1305;25401;-87
2022/10/27 07:48:11;;;;;;;29.40;26.60;;;;;;;10.79;100.00;98985.60;103825;1291;25240;-85
2022/10/27 07:50:40;;;;;;;33.80;30.50;;;;;;;10.87;100.00;98984.41;103880;1304;22477;-83
2022/10/27 07:53:09;;;;;;;29.50;26.70;;;;;;;10.94;100.00;98988.52;103699;1298;22493;-85
2022/10/27 07:55:37;;;;;;;32.70;29.50;;;;;;;10.98;100.00;98987.34;103916;1304;23909;-85
2022/10/27 07:58:08;;;;;;;30.30;27.40;;;;;;;11.03;100.00;98981.39;103955;1306;22551;-84
2022/10/27 08:00:39;;;;;;;29.10;26.50;;;;;;;11.06;100.00;98982.40;103804;1306;22472;-87
2022/10/27 08:03:10;;;;;;;31.20;28.30;;;;;;;11.11;100.00;98983.09;103535;1306;24225;-84
2022/10/27 08:05:38;;;;;;;34.80;31.50;;;;;;;11.18;100.00;98983.28;103805;1285;25244;-83
2022/10/27 08:08:07;;;;;;;31.90;28.90;;;;;;;11.21;100.00;98986.40;103917;1304;22617;-84
2022/10/27 08:10:38;;;;;;;30.70;27.60;;;;;;;11.28;100.00;98992.73;103598;1304;25254;-85
2022/10/27 08:13:07;;;;;;;32.00;28.70;;;;;;;11.36;100.00;98993.56;103736;1306;22584;-86
2022/10/27 08:15:38;;;;;;;31.00;28.20;;;;;;;11.42;100.00;98994.30;103596;1302;22560;-83
2022/10/27 08:18:07;;;;;;;33.10;29.90;;;;;;;11.47;100.00;98994.17;103665;1304;22457;-85
2022/10/27 08:20:38;;;;;;;29.20;26.40;;;;;;;11.52;100.00;99001.69;103818;1303;23906;-85
2022/10/27 08:23:10;;;;;;;31.70;28.40;;;;;;;11.58;100.00;98999.33;103983;1303;25236;-86
2022/10/27 08:25:38;;;;;;;30.80;27.80;;;;;;;11.65;100.00;98999.58;103726;1304;22628;-84
2022/10/27 08:28:08;;;;;;;32.50;29.20;;;;;;;11.69;100.00;99001.16;103762;1294;22471;-86
2022/10/27 08:30:36;;;;;;;31.20;28.00;;;;;;;11.75;100.00;99006.10;103719;1306;22488;-87
2022/10/27 08:33:16;;;;;;;31.30;28.10;;;;;;;11.86;100.00;99007.67;103786;1304;24275;-85
2022/10/27 08:35:44;;;;;;;28.30;25.50;;;;;;;11.98;100.00;99013.06;103874;1304;24263;-82
2022/10/27 08:38:15;;;;;;;29.20;26.20;;;;;;;12.08;100.00;99005.98;103752;1298;24259;-83
2022/10/27 08:40:58;;;;;;;29.80;26.80;;;;;;;12.18;100.00;99004.19;103870;1282;25282;-85
2022/10/27 08:43:48;;;;;;;27.00;23.70;;;;;;;12.28;99.99;99005.45;104003;1298;24399;-88
2022/10/27 08:46:53;;;;;;;27.70;24.30;;;;;;;12.39;100.00;99009.09;103977;1304;24253;-85
2022/10/27 08:49:45;;;;;;;25.10;22.70;;;;;;;12.52;99.41;99008.05;103330;1310;22470;-84
2022/10/27 08:52:30;;;;;;;24.60;22.20;;;;;;;12.57;98.92;99009.74;103084;1306;22937;-85
2022/10/27 08:55:13;;;;;;;24.60;21.90;;;;;;;12.63;98.53;99009.31;103367;1308;22480;-85
2022/10/27 08:57:49;;;;;;;24.20;21.80;;;;;;;12.70;98.47;99008.91;103473;1310;25202;-86
2022/10/27 09:00:18;;;;;;;23.80;21.30;;;;;;;12.79;97.72;99011.70;103144;1309;24292;-87
2022/10/27 09:03:26;;;;;;;35.50;22.20;;;;;;;12.84;96.86;99013.27;103204;1305;25819;-84
2022/10/27 09:06:15;;;;;;;23.10;20.70;;;;;;;12.90;96.18;99023.16;102966;1311;22493;-82
2022/10/27 09:08:53;;;;;;;23.30;21.00;;;;;;;12.99;95.84;99024.63;103258;1312;24246;-83
2022/10/27 09:11:52;;;;;;;25.70;20.80;;;;;;;13.05;95.19;99019.48;103377;1290;25267;-82
2022/10/27 09:14:45;;;;;;;24.30;21.80;;;;;;;13.16;95.68;99023.85;103579;1304;22493;-83
2022/10/27 09:17:20;;;;;;;28.40;20.10;;;;;;;13.27;94.92;99027.61;103508;1311;25650;-84
2022/10/27 09:19:55;;;;;;;19.80;17.80;;;;;;;13.37;95.09;99031.17;103488;1296;22595;-85
2022/10/27 09:22:24;;;;;;;17.70;15.80;;;;;;;13.53;95.35;99036.51;103526;1289;22837;-84
2022/10/27 09:25:03;;;;;;;20.10;17.90;;;;;;;13.66;94.90;99032.38;103524;1304;24821;-84
2022/10/27 09:27:32;;;;;;;19.40;17.50;;;;;;;13.82;94.87;99036.06;104053;1305;24426;-84
2022/10/27 09:30:04;;;;;;;20.20;16.20;;;;;;;13.91;94.19;99031.98;103890;1298;22443;-84
2022/10/27 09:32:46;;;;;;;20.30;16.30;;;;;;;14.00;93.52;99029.96;104136;1306;22492;-83
2022/10/27 09:35:21;;;;;;;19.10;16.90;;;;;;;14.06;93.80;99030.04;104097;1295;22560;-85
2022/10/27 09:37:51;;;;;;;18.20;15.20;;;;;;;14.16;93.09;99032.17;104082;1304;22463;-86
2022/10/27 09:40:22;;;;;;;17.00;15.30;;;;;;;14.32;93.77;99027.36;104557;1306;22510;-84
2022/10/27 09:42:52;;;;;;;16.20;13.80;;;;;;;14.41;90.52;99028.36;104288;1304;25631;-85
2022/10/27 09:45:24;;;;;;;18.20;14.70;;;;;;;14.45;92.30;99022.60;104205;1297;25317;-85
2022/10/27 09:47:58;;;;;;;18.50;16.40;;;;;;;14.49;91.02;99021.17;104384;1306;22466;-87
2022/10/27 09:50:44;;;;;;;17.90;15.40;;;;;;;14.57;91.57;99021.67;104727;1304;22448;-86
2022/10/27 09:53:46;;;;;;;15.60;13.20;;;;;;;14.72;91.78;99015.33;104808;1305;24339;-91
2022/10/27 09:56:27;;;;;;;19.70;14.60;;;;;;;14.87;90.21;99015.34;103883;1297;22445;-87
2022/10/27 09:59:01;;;;;;;61.60;20.30;;;;;;;14.90;87.85;99015.88;104542;1287;22532;-86
2022/10/27 10:01:56;;;;;;;20.50;14.80;;;;;;;14.92;87.91;99022.24;104912;1311;22425;-87
2022/10/27 10:04:30;;;;;;;17.00;12.80;;;;;;;14.96;88.40;99023.09;104813;1283;26651;-87
2022/10/27 10:07:19;;;;;;;18.90;13.90;;;;;;;15.02;87.87;99021.17;103630;1310;24280;-87
2022/10/27 10:10:19;;;;;;;19.30;14.20;;;;;;;15.08;88.31;99023.03;104392;1311;23092;-85
2022/10/27 10:13:00;;;;;;;22.30;14.40;;;;;;;15.23;88.64;99021.98;103626;1299;25519;-88
2022/10/27 10:15:37;;;;;;;17.50;14.40;;;;;;;15.35;87.54;99018.38;103692;1287;22509;-91
2022/10/27 10:18:25;;;;;;;18.10;16.10;;;;;;;15.45;88.13;99021.96;103566;1312;22570;-91
2022/10/27 10:21:09;;;;;;;22.30;17.70;;;;;;;15.51;86.57;99019.91;103753;1296;25386;-92
2022/10/27 10:23:40;;;;;;;;;;;;;;;15.57;86.46;99017.48;106413;1310;22558;-90
2022/10/27 10:26:21;;;;;;;17.40;14.00;;;;;;;15.59;84.56;99020.39;105474;1310;22293;-81
2022/10/27 10:28:53;;;;;;;18.60;14.70;;;;;;;15.63;85.45;99013.40;104352;1310;22867;-93
2022/10/27 10:31:27;;;;;;;20.50;15.20;;;;;;;15.72;85.26;99014.54;103944;1306;22548;-90
2022/10/27 10:34:21;;;;;;;20.40;16.50;;;;;;;15.80;84.78;99013.21;104221;1298;25346;-85
2022/10/27 10:36:49;;;;;;;18.80;15.40;;;;;;;15.88;83.96;99018.81;103872;1306;22563;-86
2022/10/27 10:39:26;;;;;;;21.30;15.50;;;;;;;15.91;83.74;99014.55;103858;1306;24235;-84
2022/10/27 10:42:17;;;;;;;20.60;15.90;;;;;;;15.96;84.07;99013.47;103781;1306;23449;-85
2022/10/27 10:44:45;;;;;;;16.70;14.90;;;;;;;16.06;83.70;99003.86;103753;1306;25224;-86
2022/10/27 10:47:27;;;;;;;23.30;15.80;;;;;;;16.16;81.36;99006.70;103819;1306;24304;-89
2022/10/27 10:50:01;;;;;;;16.70;14.90;;;;;;;16.17;79.97;99012.48;103824;1306;22494;-86
2022/10/27 10:52:35;;;;;;;;;;;;;;;16.20;80.22;99009.39;103854;1306;24437;-86
2022/10/27 10:55:16;;;;;;;21.50;17.10;;;;;;;16.29;81.35;99005.91;103809;1306;22537;-85
2022/10/27 10:57:47;;;;;;;16.80;12.60;;;;;;;16.41;80.82;99012.95;103591;1306;23298;-86
2022/10/27 11:00:17;;;;;;;15.00;13.40;;;;;;;16.49;80.78;99010.77;103471;1306;23017;-85
2022/10/27 11:03:16;;;;;;;21.60;14.10;;;;;;;16.67;82.04;99008.77;103576;1306;24091;-87
2022/10/27 11:05:53;;;;;;;15.00;11.60;;;;;;;17.00;81.98;99008.45;103681;1306;23067;-85
2022/10/27 11:08:33;;;;;;;12.90;10.60;;;;;;;17.21;81.12;99007.51;103709;1306;22519;-85
2022/10/27 11:11:21;;;;;;;14.40;10.90;;;;;;;17.32;78.56;99007.48;103869;1281;22555;-89
2022/10/27 11:13:54;;;;;;;14.20;10.20;;;;;;;17.35;78.34;99005.92;104144;1298;23292;-88
2022/10/27 11:16:24;;;;;;;17.00;11.50;;;;;;;17.39;77.12;99003.17;103764;1297;22589;-82
2022/10/27 11:19:05;;;;;;;13.50;9.30;;;;;;;17.41;77.04;99005.67;103934;1305;25252;-82
2022/10/27 11:21:41;;;;;;;13.60;9.30;;;;;;;17.56;79.02;99004.42;103894;1304;22870;-84
2022/10/27 11:24:35;;;;;;;16.90;9.40;;;;;;;17.77;79.26;99004.48;104033;1299;22479;-85
2022/10/27 11:27:28;;;;;;;14.90;8.70;;;;;;;18.00;78.41;99007.49;103829;1306;24164;-83
2022/10/27 11:30:11;;;;;;;11.90;8.30;;;;;;;18.03;73.11;99008.08;104189;1306;22479;-85
2022/10/27 11:33:02;;;;;;;13.40;8.00;;;;;;;17.98;74.02;99006.85;104215;1293;24270;-89
2022/10/27 11:35:39;;;;;;;12.40;7.50;;;;;;;18.06;74.37;99005.50;103915;1297;23277;-84